sensor_id;sensor_type;location;lat;lon;timestamp;temperature;humidity
35325;DHT22;35135;47.510;19.036;2023-08-24T00:00:52;28.90;58.20
35325;DHT22;35135;47.510;19.036;2023-08-24T00:03:18;28.80;58.30
35325;DHT22;35135;47.510;19.036;2023-08-24T00:05:44;28.80;58.40
35325;DHT22;35135;47.510;19.036;2023-08-24T00:08:10;28.80;58.40
35325;DHT22;35135;47.510;19.036;2023-08-24T00:10:37;28.70;58.50
35325;DHT22;35135;47.510;19.036;2023-08-24T00:13:04;28.70;58.50
35325;DHT22;35135;47.510;19.036;2023-08-24T00:15:30;28.80;58.60
35325;DHT22;35135;47.510;19.036;2023-08-24T00:17:56;28.80;58.60
35325;DHT22;35135;47.510;19.036;2023-08-24T00:20:22;28.80;58.30
35325;DHT22;35135;47.510;19.036;2023-08-24T00:22:48;28.80;58.50
35325;DHT22;35135;47.510;19.036;2023-08-24T00:25:14;28.80;58.50
35325;DHT22;35135;47.510;19.036;2023-08-24T00:27:40;28.80;58.40
35325;DHT22;35135;47.510;19.036;2023-08-24T00:30:07;28.80;58.50
35325;DHT22;35135;47.510;19.036;2023-08-24T00:32:34;28.80;58.10
35325;DHT22;35135;47.510;19.036;2023-08-24T00:35:07;28.80;58.30
35325;DHT22;35135;47.510;19.036;2023-08-24T00:37:34;28.80;58.30
35325;DHT22;35135;47.510;19.036;2023-08-24T00:40:00;28.90;58.30
35325;DHT22;35135;47.510;19.036;2023-08-24T00:42:29;28.90;58.30
35325;DHT22;35135;47.510;19.036;2023-08-24T00:44:55;29.00;58.20
35325;DHT22;35135;47.510;19.036;2023-08-24T00:47:21;29.00;58.00
35325;DHT22;35135;47.510;19.036;2023-08-24T00:49:47;29.10;58.00
35325;DHT22;35135;47.510;19.036;2023-08-24T00:52:13;29.10;57.70
35325;DHT22;35135;47.510;19.036;2023-08-24T00:54:39;29.10;57.40
35325;DHT22;35135;47.510;19.036;2023-08-24T00:57:06;29.10;57.50
35325;DHT22;35135;47.510;19.036;2023-08-24T00:59:33;29.10;57.70
35325;DHT22;35135;47.510;19.036;2023-08-24T01:01:59;29.00;57.70
35325;DHT22;35135;47.510;19.036;2023-08-24T01:04:25;28.90;57.70
35325;DHT22;35135;47.510;19.036;2023-08-24T01:06:51;28.90;58.10
35325;DHT22;35135;47.510;19.036;2023-08-24T01:09:18;28.90;58.00
35325;DHT22;35135;47.510;19.036;2023-08-24T01:11:58;28.90;58.00
35325;DHT22;35135;47.510;19.036;2023-08-24T01:17:01;29.00;57.80
35325;DHT22;35135;47.510;19.036;2023-08-24T01:19:38;29.00;57.90
35325;DHT22;35135;47.510;19.036;2023-08-24T01:22:20;29.00;57.60
35325;DHT22;35135;47.510;19.036;2023-08-24T01:24:58;28.90;57.60
35325;DHT22;35135;47.510;19.036;2023-08-24T01:27:26;28.80;57.70
35325;DHT22;35135;47.510;19.036;2023-08-24T01:29:53;28.70;57.90
35325;DHT22;35135;47.510;19.036;2023-08-24T01:32:22;28.60;58.10
35325;DHT22;35135;47.510;19.036;2023-08-24T01:34:48;28.70;58.40
35325;DHT22;35135;47.510;19.036;2023-08-24T01:37:14;28.70;58.30
35325;DHT22;35135;47.510;19.036;2023-08-24T01:39:45;28.60;58.20
35325;DHT22;35135;47.510;19.036;2023-08-24T01:42:16;28.60;58.20
35325;DHT22;35135;47.510;19.036;2023-08-24T01:44:48;28.60;58.20
35325;DHT22;35135;47.510;19.036;2023-08-24T01:47:15;28.50;58.40
35325;DHT22;35135;47.510;19.036;2023-08-24T01:49:43;28.50;58.50
35325;DHT22;35135;47.510;19.036;2023-08-24T01:52:09;28.50;58.60
35325;DHT22;35135;47.510;19.036;2023-08-24T01:54:35;28.40;58.70
35325;DHT22;35135;47.510;19.036;2023-08-24T01:57:03;28.50;58.60
35325;DHT22;35135;47.510;19.036;2023-08-24T01:59:29;28.50;58.50
35325;DHT22;35135;47.510;19.036;2023-08-24T02:01:55;28.40;58.60
35325;DHT22;35135;47.510;19.036;2023-08-24T02:04:20;28.40;58.70
35325;DHT22;35135;47.510;19.036;2023-08-24T02:06:46;28.40;58.90
35325;DHT22;35135;47.510;19.036;2023-08-24T02:09:12;28.40;58.70
35325;DHT22;35135;47.510;19.036;2023-08-24T02:11:37;28.40;58.60
35325;DHT22;35135;47.510;19.036;2023-08-24T02:14:04;28.40;58.70
35325;DHT22;35135;47.510;19.036;2023-08-24T02:16:29;28.40;58.70
35325;DHT22;35135;47.510;19.036;2023-08-24T02:18:56;28.30;58.70
35325;DHT22;35135;47.510;19.036;2023-08-24T02:21:21;28.40;58.80
35325;DHT22;35135;47.510;19.036;2023-08-24T02:23:47;28.40;58.80
35325;DHT22;35135;47.510;19.036;2023-08-24T02:26:12;28.50;58.70
35325;DHT22;35135;47.510;19.036;2023-08-24T02:28:38;28.60;58.50
35325;DHT22;35135;47.510;19.036;2023-08-24T02:31:05;28.60;58.20
35325;DHT22;35135;47.510;19.036;2023-08-24T02:33:31;28.60;58.20
35325;DHT22;35135;47.510;19.036;2023-08-24T02:35:57;28.50;58.40
35325;DHT22;35135;47.510;19.036;2023-08-24T02:38:23;28.40;58.50
35325;DHT22;35135;47.510;19.036;2023-08-24T02:40:49;28.40;58.60
35325;DHT22;35135;47.510;19.036;2023-08-24T02:43:15;28.30;58.70
35325;DHT22;35135;47.510;19.036;2023-08-24T02:45:40;28.30;58.80
35325;DHT22;35135;47.510;19.036;2023-08-24T02:48:06;28.20;58.90
35325;DHT22;35135;47.510;19.036;2023-08-24T02:50:32;28.20;59.00
35325;DHT22;35135;47.510;19.036;2023-08-24T02:52:57;28.20;59.00
35325;DHT22;35135;47.510;19.036;2023-08-24T02:55:24;28.10;59.70
35325;DHT22;35135;47.510;19.036;2023-08-24T02:57:49;28.10;59.00
35325;DHT22;35135;47.510;19.036;2023-08-24T03:00:15;28.20;59.10
35325;DHT22;35135;47.510;19.036;2023-08-24T03:02:42;28.20;59.10
35325;DHT22;35135;47.510;19.036;2023-08-24T03:05:08;28.20;59.10
35325;DHT22;35135;47.510;19.036;2023-08-24T03:07:34;28.10;59.00
35325;DHT22;35135;47.510;19.036;2023-08-24T03:09:59;28.10;59.10
35325;DHT22;35135;47.510;19.036;2023-08-24T03:12:25;28.00;59.10
35325;DHT22;35135;47.510;19.036;2023-08-24T03:14:53;28.00;59.20
35325;DHT22;35135;47.510;19.036;2023-08-24T03:17:20;28.00;59.30
35325;DHT22;35135;47.510;19.036;2023-08-24T03:19:46;28.00;59.50
35325;DHT22;35135;47.510;19.036;2023-08-24T03:22:12;28.10;59.50
35325;DHT22;35135;47.510;19.036;2023-08-24T03:24:37;28.20;59.10
35325;DHT22;35135;47.510;19.036;2023-08-24T03:27:03;28.20;59.00
35325;DHT22;35135;47.510;19.036;2023-08-24T03:29:29;28.20;59.10
35325;DHT22;35135;47.510;19.036;2023-08-24T03:31:54;28.20;58.80
35325;DHT22;35135;47.510;19.036;2023-08-24T03:34:20;28.20;58.90
35325;DHT22;35135;47.510;19.036;2023-08-24T03:36:46;28.20;59.00
35325;DHT22;35135;47.510;19.036;2023-08-24T03:39:13;28.10;58.90
35325;DHT22;35135;47.510;19.036;2023-08-24T03:41:41;28.10;59.00
35325;DHT22;35135;47.510;19.036;2023-08-24T03:44:06;28.10;59.10
35325;DHT22;35135;47.510;19.036;2023-08-24T03:46:32;28.00;59.10
35325;DHT22;35135;47.510;19.036;2023-08-24T03:48:59;28.00;59.20
35325;DHT22;35135;47.510;19.036;2023-08-24T03:51:24;28.00;59.20
35325;DHT22;35135;47.510;19.036;2023-08-24T03:53:50;27.90;59.30
35325;DHT22;35135;47.510;19.036;2023-08-24T03:56:16;27.90;59.60
35325;DHT22;35135;47.510;19.036;2023-08-24T03:58:41;27.90;59.50
35325;DHT22;35135;47.510;19.036;2023-08-24T04:01:10;27.90;59.70
35325;DHT22;35135;47.510;19.036;2023-08-24T04:03:36;27.90;60.20
35325;DHT22;35135;47.510;19.036;2023-08-24T04:06:02;27.90;59.80
35325;DHT22;35135;47.510;19.036;2023-08-24T04:08:27;27.80;59.90
35325;DHT22;35135;47.510;19.036;2023-08-24T04:10:53;27.80;60.10
35325;DHT22;35135;47.510;19.036;2023-08-24T04:13:19;27.80;60.20
35325;DHT22;35135;47.510;19.036;2023-08-24T04:15:45;27.80;60.10
35325;DHT22;35135;47.510;19.036;2023-08-24T04:18:10;27.70;60.30
35325;DHT22;35135;47.510;19.036;2023-08-24T04:20:36;27.70;60.70
35325;DHT22;35135;47.510;19.036;2023-08-24T04:23:02;27.70;60.70
35325;DHT22;35135;47.510;19.036;2023-08-24T04:25:28;27.70;60.80
35325;DHT22;35135;47.510;19.036;2023-08-24T04:27:55;27.60;60.70
35325;DHT22;35135;47.510;19.036;2023-08-24T04:30:20;27.70;60.80
35325;DHT22;35135;47.510;19.036;2023-08-24T04:32:47;27.60;60.70
35325;DHT22;35135;47.510;19.036;2023-08-24T04:35:13;27.60;60.80
35325;DHT22;35135;47.510;19.036;2023-08-24T04:37:38;27.60;60.90
35325;DHT22;35135;47.510;19.036;2023-08-24T04:40:10;27.60;61.00
35325;DHT22;35135;47.510;19.036;2023-08-24T04:42:36;27.60;61.10
35325;DHT22;35135;47.510;19.036;2023-08-24T04:45:05;27.60;61.00
35325;DHT22;35135;47.510;19.036;2023-08-24T04:47:31;27.50;61.00
35325;DHT22;35135;47.510;19.036;2023-08-24T04:49:56;27.50;61.10
35325;DHT22;35135;47.510;19.036;2023-08-24T04:52:22;27.60;61.20
35325;DHT22;35135;47.510;19.036;2023-08-24T04:54:48;27.60;61.00
35325;DHT22;35135;47.510;19.036;2023-08-24T04:57:13;27.60;60.90
35325;DHT22;35135;47.510;19.036;2023-08-24T04:59:39;27.60;60.90
35325;DHT22;35135;47.510;19.036;2023-08-24T05:02:05;27.60;61.10
35325;DHT22;35135;47.510;19.036;2023-08-24T05:04:30;27.60;61.00
35325;DHT22;35135;47.510;19.036;2023-08-24T05:06:56;27.60;61.20
35325;DHT22;35135;47.510;19.036;2023-08-24T05:09:22;27.60;61.10
35325;DHT22;35135;47.510;19.036;2023-08-24T05:11:48;27.60;61.00
35325;DHT22;35135;47.510;19.036;2023-08-24T05:14:13;27.60;61.00
35325;DHT22;35135;47.510;19.036;2023-08-24T05:16:39;27.70;61.10
35325;DHT22;35135;47.510;19.036;2023-08-24T05:19:05;27.70;61.00
35325;DHT22;35135;47.510;19.036;2023-08-24T05:21:31;27.80;61.00
35325;DHT22;35135;47.510;19.036;2023-08-24T05:23:56;27.80;61.00
35325;DHT22;35135;47.510;19.036;2023-08-24T05:26:22;27.90;60.80
35325;DHT22;35135;47.510;19.036;2023-08-24T05:28:48;27.90;60.70
35325;DHT22;35135;47.510;19.036;2023-08-24T05:31:14;28.00;60.60
35325;DHT22;35135;47.510;19.036;2023-08-24T05:33:39;28.00;60.60
35325;DHT22;35135;47.510;19.036;2023-08-24T05:36:05;28.10;60.70
35325;DHT22;35135;47.510;19.036;2023-08-24T05:38:31;28.10;60.70
35325;DHT22;35135;47.510;19.036;2023-08-24T05:40:56;28.20;60.70
35325;DHT22;35135;47.510;19.036;2023-08-24T05:43:22;28.20;60.60
35325;DHT22;35135;47.510;19.036;2023-08-24T05:45:48;28.30;60.70
35325;DHT22;35135;47.510;19.036;2023-08-24T05:48:14;28.30;60.60
35325;DHT22;35135;47.510;19.036;2023-08-24T05:50:44;28.40;60.50
35325;DHT22;35135;47.510;19.036;2023-08-24T05:53:10;28.40;60.30
35325;DHT22;35135;47.510;19.036;2023-08-24T05:55:36;28.50;60.40
35325;DHT22;35135;47.510;19.036;2023-08-24T05:58:02;28.50;60.40
35325;DHT22;35135;47.510;19.036;2023-08-24T06:00:28;28.50;60.40
35325;DHT22;35135;47.510;19.036;2023-08-24T06:02:55;28.50;60.20
35325;DHT22;35135;47.510;19.036;2023-08-24T06:05:20;28.50;60.10
35325;DHT22;35135;47.510;19.036;2023-08-24T06:07:46;28.60;60.00
35325;DHT22;35135;47.510;19.036;2023-08-24T06:10:12;28.60;59.80
35325;DHT22;35135;47.510;19.036;2023-08-24T06:12:38;28.70;59.90
35325;DHT22;35135;47.510;19.036;2023-08-24T06:15:05;28.70;60.00
35325;DHT22;35135;47.510;19.036;2023-08-24T06:17:30;28.70;59.80
35325;DHT22;35135;47.510;19.036;2023-08-24T06:19:56;28.80;59.80
35325;DHT22;35135;47.510;19.036;2023-08-24T06:22:22;28.80;59.70
35325;DHT22;35135;47.510;19.036;2023-08-24T06:24:47;28.80;59.30
35325;DHT22;35135;47.510;19.036;2023-08-24T06:27:13;28.90;59.40
35325;DHT22;35135;47.510;19.036;2023-08-24T06:29:42;28.90;59.10
35325;DHT22;35135;47.510;19.036;2023-08-24T06:32:08;28.90;59.00
35325;DHT22;35135;47.510;19.036;2023-08-24T06:34:33;28.90;58.70
35325;DHT22;35135;47.510;19.036;2023-08-24T06:37:01;28.90;58.80
35325;DHT22;35135;47.510;19.036;2023-08-24T06:39:27;28.90;59.10
35325;DHT22;35135;47.510;19.036;2023-08-24T06:41:52;28.90;58.80
35325;DHT22;35135;47.510;19.036;2023-08-24T06:44:18;29.00;59.00
35325;DHT22;35135;47.510;19.036;2023-08-24T06:46:44;29.00;59.00
35325;DHT22;35135;47.510;19.036;2023-08-24T06:49:09;29.00;58.90
35325;DHT22;35135;47.510;19.036;2023-08-24T06:51:35;29.00;58.80
35325;DHT22;35135;47.510;19.036;2023-08-24T06:54:01;29.00;58.60
35325;DHT22;35135;47.510;19.036;2023-08-24T06:56:26;29.10;58.70
35325;DHT22;35135;47.510;19.036;2023-08-24T06:58:52;29.10;58.70
35325;DHT22;35135;47.510;19.036;2023-08-24T07:01:18;29.20;58.90
35325;DHT22;35135;47.510;19.036;2023-08-24T07:03:43;29.20;58.70
35325;DHT22;35135;47.510;19.036;2023-08-24T07:06:09;29.20;58.60
35325;DHT22;35135;47.510;19.036;2023-08-24T07:08:37;29.20;58.70
35325;DHT22;35135;47.510;19.036;2023-08-24T07:11:03;29.20;58.50
35325;DHT22;35135;47.510;19.036;2023-08-24T07:13:29;29.30;58.50
35325;DHT22;35135;47.510;19.036;2023-08-24T07:15:54;29.30;58.30
35325;DHT22;35135;47.510;19.036;2023-08-24T07:18:21;29.30;58.50
35325;DHT22;35135;47.510;19.036;2023-08-24T07:20:47;29.30;58.50
35325;DHT22;35135;47.510;19.036;2023-08-24T07:23:12;29.30;58.30
35325;DHT22;35135;47.510;19.036;2023-08-24T07:25:38;29.30;58.30
35325;DHT22;35135;47.510;19.036;2023-08-24T07:28:04;29.40;58.70
35325;DHT22;35135;47.510;19.036;2023-08-24T07:30:31;29.40;58.50
35325;DHT22;35135;47.510;19.036;2023-08-24T07:32:57;29.40;58.20
35325;DHT22;35135;47.510;19.036;2023-08-24T07:35:23;29.40;58.30
35325;DHT22;35135;47.510;19.036;2023-08-24T07:37:52;29.40;58.20
35325;DHT22;35135;47.510;19.036;2023-08-24T07:40:18;29.40;58.00
35325;DHT22;35135;47.510;19.036;2023-08-24T07:42:45;29.40;57.80
35325;DHT22;35135;47.510;19.036;2023-08-24T07:45:11;29.50;58.30
35325;DHT22;35135;47.510;19.036;2023-08-24T07:47:37;29.50;58.10
35325;DHT22;35135;47.510;19.036;2023-08-24T07:50:03;29.50;58.30
35325;DHT22;35135;47.510;19.036;2023-08-24T07:52:29;29.50;58.40
35325;DHT22;35135;47.510;19.036;2023-08-24T07:54:55;29.50;58.70
35325;DHT22;35135;47.510;19.036;2023-08-24T07:57:24;29.60;58.90
35325;DHT22;35135;47.510;19.036;2023-08-24T07:59:51;29.60;58.70
35325;DHT22;35135;47.510;19.036;2023-08-24T08:02:18;29.60;58.10
35325;DHT22;35135;47.510;19.036;2023-08-24T08:04:43;29.60;58.30
35325;DHT22;35135;47.510;19.036;2023-08-24T08:07:09;29.60;57.80
35325;DHT22;35135;47.510;19.036;2023-08-24T08:09:36;29.60;57.90
35325;DHT22;35135;47.510;19.036;2023-08-24T08:12:02;29.60;57.20
35325;DHT22;35135;47.510;19.036;2023-08-24T08:14:29;29.60;57.50
35325;DHT22;35135;47.510;19.036;2023-08-24T08:16:56;29.60;57.60
35325;DHT22;35135;47.510;19.036;2023-08-24T08:19:22;29.60;57.40
35325;DHT22;35135;47.510;19.036;2023-08-24T08:21:50;29.70;57.30
35325;DHT22;35135;47.510;19.036;2023-08-24T08:24:16;29.70;57.10
35325;DHT22;35135;47.510;19.036;2023-08-24T08:26:42;29.70;57.00
35325;DHT22;35135;47.510;19.036;2023-08-24T08:29:07;29.70;57.10
35325;DHT22;35135;47.510;19.036;2023-08-24T08:31:33;29.70;56.60
35325;DHT22;35135;47.510;19.036;2023-08-24T08:33:59;29.60;56.30
35325;DHT22;35135;47.510;19.036;2023-08-24T08:36:24;29.60;56.30
35325;DHT22;35135;47.510;19.036;2023-08-24T08:38:50;29.70;56.40
35325;DHT22;35135;47.510;19.036;2023-08-24T08:41:17;29.70;55.90
35325;DHT22;35135;47.510;19.036;2023-08-24T08:43:47;29.70;55.90
35325;DHT22;35135;47.510;19.036;2023-08-24T08:46:14;29.70;56.00
35325;DHT22;35135;47.510;19.036;2023-08-24T08:48:41;29.70;55.00
35325;DHT22;35135;47.510;19.036;2023-08-24T08:51:08;29.70;54.60
35325;DHT22;35135;47.510;19.036;2023-08-24T08:53:35;29.70;54.60
35325;DHT22;35135;47.510;19.036;2023-08-24T08:56:01;29.70;54.80
35325;DHT22;35135;47.510;19.036;2023-08-24T08:58:31;29.70;54.90
35325;DHT22;35135;47.510;19.036;2023-08-24T09:00:57;29.70;54.80
35325;DHT22;35135;47.510;19.036;2023-08-24T09:03:26;29.70;54.60
35325;DHT22;35135;47.510;19.036;2023-08-24T09:05:53;29.70;54.60
35325;DHT22;35135;47.510;19.036;2023-08-24T09:08:20;29.70;54.30
35325;DHT22;35135;47.510;19.036;2023-08-24T09:10:46;29.70;54.40
35325;DHT22;35135;47.510;19.036;2023-08-24T09:13:12;29.70;54.20
35325;DHT22;35135;47.510;19.036;2023-08-24T09:15:37;29.80;54.10
35325;DHT22;35135;47.510;19.036;2023-08-24T09:18:03;29.70;54.00
35325;DHT22;35135;47.510;19.036;2023-08-24T09:20:30;29.70;54.40
35325;DHT22;35135;47.510;19.036;2023-08-24T09:22:56;29.70;54.40
35325;DHT22;35135;47.510;19.036;2023-08-24T09:25:26;29.70;54.30
35325;DHT22;35135;47.510;19.036;2023-08-24T09:28:02;29.70;54.40
35325;DHT22;35135;47.510;19.036;2023-08-24T09:30:34;29.80;54.30
35325;DHT22;35135;47.510;19.036;2023-08-24T09:33:18;29.80;53.70
35325;DHT22;35135;47.510;19.036;2023-08-24T09:35:43;29.80;53.00
35325;DHT22;35135;47.510;19.036;2023-08-24T09:38:22;29.80;52.80
35325;DHT22;35135;47.510;19.036;2023-08-24T09:40:53;29.80;53.30
35325;DHT22;35135;47.510;19.036;2023-08-24T09:43:19;29.80;52.80
35325;DHT22;35135;47.510;19.036;2023-08-24T09:45:53;29.80;53.70
35325;DHT22;35135;47.510;19.036;2023-08-24T09:48:19;29.80;53.10
35325;DHT22;35135;47.510;19.036;2023-08-24T09:50:46;29.80;53.20
35325;DHT22;35135;47.510;19.036;2023-08-24T09:53:23;29.80;53.90
35325;DHT22;35135;47.510;19.036;2023-08-24T09:55:59;29.80;52.80
35325;DHT22;35135;47.510;19.036;2023-08-24T09:58:26;29.80;53.20
35325;DHT22;35135;47.510;19.036;2023-08-24T10:00:52;29.80;53.80
35325;DHT22;35135;47.510;19.036;2023-08-24T10:03:21;29.90;53.30
35325;DHT22;35135;47.510;19.036;2023-08-24T10:05:52;29.80;53.00
35325;DHT22;35135;47.510;19.036;2023-08-24T10:08:26;29.80;52.70
35325;DHT22;35135;47.510;19.036;2023-08-24T10:10:53;29.90;53.30
35325;DHT22;35135;47.510;19.036;2023-08-24T10:13:50;29.80;53.40
35325;DHT22;35135;47.510;19.036;2023-08-24T10:16:18;29.80;53.10
35325;DHT22;35135;47.510;19.036;2023-08-24T10:18:46;29.80;52.80
35325;DHT22;35135;47.510;19.036;2023-08-24T10:21:12;29.90;53.50
35325;DHT22;35135;47.510;19.036;2023-08-24T10:23:39;29.80;53.30
35325;DHT22;35135;47.510;19.036;2023-08-24T10:26:07;29.90;53.00
35325;DHT22;35135;47.510;19.036;2023-08-24T10:28:33;29.80;52.80
35325;DHT22;35135;47.510;19.036;2023-08-24T10:31:00;29.80;52.60
35325;DHT22;35135;47.510;19.036;2023-08-24T10:33:27;29.80;52.70
35325;DHT22;35135;47.510;19.036;2023-08-24T10:35:53;29.80;53.20
35325;DHT22;35135;47.510;19.036;2023-08-24T10:38:24;29.80;53.30
35325;DHT22;35135;47.510;19.036;2023-08-24T10:40:51;29.80;53.50
35325;DHT22;35135;47.510;19.036;2023-08-24T10:43:17;29.90;53.60
35325;DHT22;35135;47.510;19.036;2023-08-24T10:46:01;29.80;53.20
35325;DHT22;35135;47.510;19.036;2023-08-24T10:48:30;29.80;53.10
35325;DHT22;35135;47.510;19.036;2023-08-24T10:53:46;29.80;53.00
35325;DHT22;35135;47.510;19.036;2023-08-24T10:56:14;29.80;51.50
35325;DHT22;35135;47.510;19.036;2023-08-24T10:58:40;29.80;51.80
35325;DHT22;35135;47.510;19.036;2023-08-24T11:01:06;29.80;52.20
35325;DHT22;35135;47.510;19.036;2023-08-24T11:03:32;29.80;52.00
35325;DHT22;35135;47.510;19.036;2023-08-24T11:05:58;29.80;50.80
35325;DHT22;35135;47.510;19.036;2023-08-24T11:08:44;29.80;51.60
35325;DHT22;35135;47.510;19.036;2023-08-24T11:11:23;29.80;50.50
35325;DHT22;35135;47.510;19.036;2023-08-24T11:16:44;29.80;50.40
35325;DHT22;35135;47.510;19.036;2023-08-24T11:19:11;29.80;49.70
35325;DHT22;35135;47.510;19.036;2023-08-24T11:21:41;29.80;49.90
35325;DHT22;35135;47.510;19.036;2023-08-24T11:24:11;29.80;49.40
35325;DHT22;35135;47.510;19.036;2023-08-24T11:26:42;29.80;49.10
35325;DHT22;35135;47.510;19.036;2023-08-24T11:29:09;29.80;49.60
35325;DHT22;35135;47.510;19.036;2023-08-24T11:31:35;29.80;49.90
35325;DHT22;35135;47.510;19.036;2023-08-24T11:34:01;29.80;50.60
35325;DHT22;35135;47.510;19.036;2023-08-24T11:36:28;29.90;50.00
35325;DHT22;35135;47.510;19.036;2023-08-24T11:38:59;29.80;49.70
35325;DHT22;35135;47.510;19.036;2023-08-24T11:41:26;29.80;49.90
35325;DHT22;35135;47.510;19.036;2023-08-24T11:43:59;29.80;49.80
35325;DHT22;35135;47.510;19.036;2023-08-24T11:46:27;29.80;50.30
35325;DHT22;35135;47.510;19.036;2023-08-24T11:48:53;29.80;50.70
35325;DHT22;35135;47.510;19.036;2023-08-24T11:51:18;29.80;49.90
35325;DHT22;35135;47.510;19.036;2023-08-24T11:53:46;29.80;49.50
35325;DHT22;35135;47.510;19.036;2023-08-24T11:56:13;29.80;49.30
35325;DHT22;35135;47.510;19.036;2023-08-24T11:58:40;29.80;49.30
35325;DHT22;35135;47.510;19.036;2023-08-24T12:01:08;29.80;49.90
35325;DHT22;35135;47.510;19.036;2023-08-24T12:03:35;29.80;50.40
35325;DHT22;35135;47.510;19.036;2023-08-24T12:06:01;29.80;49.90
35325;DHT22;35135;47.510;19.036;2023-08-24T12:08:29;29.80;49.00
35325;DHT22;35135;47.510;19.036;2023-08-24T12:10:55;29.90;49.80
35325;DHT22;35135;47.510;19.036;2023-08-24T12:13:22;29.80;49.00
35325;DHT22;35135;47.510;19.036;2023-08-24T12:15:47;29.80;49.50
35325;DHT22;35135;47.510;19.036;2023-08-24T12:18:16;29.80;49.40
35325;DHT22;35135;47.510;19.036;2023-08-24T12:20:41;29.80;48.40
35325;DHT22;35135;47.510;19.036;2023-08-24T12:23:10;29.80;49.50
35325;DHT22;35135;47.510;19.036;2023-08-24T12:25:43;29.90;48.30
35325;DHT22;35135;47.510;19.036;2023-08-24T12:28:16;29.80;48.60
35325;DHT22;35135;47.510;19.036;2023-08-24T12:30:51;29.80;48.20
35325;DHT22;35135;47.510;19.036;2023-08-24T12:33:28;29.80;47.70
35325;DHT22;35135;47.510;19.036;2023-08-24T12:35:55;29.80;47.70
35325;DHT22;35135;47.510;19.036;2023-08-24T12:38:25;29.80;47.30
35325;DHT22;35135;47.510;19.036;2023-08-24T12:40:52;29.80;47.90
35325;DHT22;35135;47.510;19.036;2023-08-24T12:43:18;29.80;47.60
35325;DHT22;35135;47.510;19.036;2023-08-24T12:45:43;29.80;48.30
35325;DHT22;35135;47.510;19.036;2023-08-24T12:48:10;29.80;48.30
35325;DHT22;35135;47.510;19.036;2023-08-24T12:50:37;29.80;47.30
35325;DHT22;35135;47.510;19.036;2023-08-24T12:53:03;29.90;47.40
35325;DHT22;35135;47.510;19.036;2023-08-24T12:55:35;29.80;48.60
35325;DHT22;35135;47.510;19.036;2023-08-24T12:58:01;29.80;47.10
35325;DHT22;35135;47.510;19.036;2023-08-24T13:00:27;29.80;47.50
35325;DHT22;35135;47.510;19.036;2023-08-24T13:02:55;29.80;47.50
35325;DHT22;35135;47.510;19.036;2023-08-24T13:05:21;29.80;47.80
35325;DHT22;35135;47.510;19.036;2023-08-24T13:07:47;29.80;48.10
35325;DHT22;35135;47.510;19.036;2023-08-24T13:10:13;29.80;47.50
35325;DHT22;35135;47.510;19.036;2023-08-24T13:12:39;29.80;47.80
35325;DHT22;35135;47.510;19.036;2023-08-24T13:15:05;29.80;47.30
35325;DHT22;35135;47.510;19.036;2023-08-24T13:17:31;29.90;47.40
35325;DHT22;35135;47.510;19.036;2023-08-24T13:19:57;29.80;47.00
35325;DHT22;35135;47.510;19.036;2023-08-24T13:22:23;29.80;46.80
35325;DHT22;35135;47.510;19.036;2023-08-24T13:24:49;29.80;47.00
35325;DHT22;35135;47.510;19.036;2023-08-24T13:27:15;29.80;46.70
35325;DHT22;35135;47.510;19.036;2023-08-24T13:29:43;29.80;47.60
35325;DHT22;35135;47.510;19.036;2023-08-24T13:32:20;29.80;47.90
35325;DHT22;35135;47.510;19.036;2023-08-24T13:34:49;29.90;47.30
35325;DHT22;35135;47.510;19.036;2023-08-24T13:37:21;29.80;47.20
35325;DHT22;35135;47.510;19.036;2023-08-24T13:39:46;29.80;47.30
35325;DHT22;35135;47.510;19.036;2023-08-24T13:42:12;29.80;47.40
35325;DHT22;35135;47.510;19.036;2023-08-24T13:44:38;29.80;47.30
35325;DHT22;35135;47.510;19.036;2023-08-24T13:47:04;29.90;46.80
35325;DHT22;35135;47.510;19.036;2023-08-24T13:49:30;29.80;46.70
35325;DHT22;35135;47.510;19.036;2023-08-24T13:51:56;29.80;46.70
35325;DHT22;35135;47.510;19.036;2023-08-24T13:54:24;29.80;46.50
35325;DHT22;35135;47.510;19.036;2023-08-24T13:56:52;29.80;46.40
35325;DHT22;35135;47.510;19.036;2023-08-24T13:59:19;29.80;45.60
35325;DHT22;35135;47.510;19.036;2023-08-24T14:01:45;29.80;46.60
35325;DHT22;35135;47.510;19.036;2023-08-24T14:04:11;29.80;46.60
35325;DHT22;35135;47.510;19.036;2023-08-24T14:06:36;29.80;46.30
35325;DHT22;35135;47.510;19.036;2023-08-24T14:09:03;29.90;46.40
35325;DHT22;35135;47.510;19.036;2023-08-24T14:11:29;29.80;46.50
35325;DHT22;35135;47.510;19.036;2023-08-24T14:13:55;29.80;46.20
35325;DHT22;35135;47.510;19.036;2023-08-24T14:16:21;29.80;47.00
35325;DHT22;35135;47.510;19.036;2023-08-24T14:18:47;29.80;46.70
35325;DHT22;35135;47.510;19.036;2023-08-24T14:21:13;29.90;46.70
35325;DHT22;35135;47.510;19.036;2023-08-24T14:23:40;29.90;46.70
35325;DHT22;35135;47.510;19.036;2023-08-24T14:26:06;29.90;46.10
35325;DHT22;35135;47.510;19.036;2023-08-24T14:28:54;29.80;45.80
35325;DHT22;35135;47.510;19.036;2023-08-24T14:31:24;29.90;46.10
35325;DHT22;35135;47.510;19.036;2023-08-24T14:33:51;29.80;45.60
35325;DHT22;35135;47.510;19.036;2023-08-24T14:36:18;29.80;45.80
35325;DHT22;35135;47.510;19.036;2023-08-24T14:38:45;29.80;45.90
35325;DHT22;35135;47.510;19.036;2023-08-24T14:41:12;29.80;45.30
35325;DHT22;35135;47.510;19.036;2023-08-24T14:43:42;29.90;44.90
35325;DHT22;35135;47.510;19.036;2023-08-24T14:46:08;29.90;45.00
35325;DHT22;35135;47.510;19.036;2023-08-24T14:48:34;29.90;43.90
35325;DHT22;35135;47.510;19.036;2023-08-24T14:51:00;29.90;44.10
35325;DHT22;35135;47.510;19.036;2023-08-24T14:53:27;29.90;44.60
35325;DHT22;35135;47.510;19.036;2023-08-24T14:55:53;29.90;44.90
35325;DHT22;35135;47.510;19.036;2023-08-24T14:58:24;29.90;45.40
35325;DHT22;35135;47.510;19.036;2023-08-24T15:00:51;29.90;45.30
35325;DHT22;35135;47.510;19.036;2023-08-24T15:03:17;29.90;45.40
35325;DHT22;35135;47.510;19.036;2023-08-24T15:05:55;30.00;45.50
35325;DHT22;35135;47.510;19.036;2023-08-24T15:08:21;30.00;45.70
35325;DHT22;35135;47.510;19.036;2023-08-24T15:10:48;30.00;46.10
35325;DHT22;35135;47.510;19.036;2023-08-24T15:13:14;30.00;45.80
35325;DHT22;35135;47.510;19.036;2023-08-24T15:15:40;30.00;46.30
35325;DHT22;35135;47.510;19.036;2023-08-24T15:18:06;30.00;46.10
35325;DHT22;35135;47.510;19.036;2023-08-24T15:20:32;30.00;46.40
35325;DHT22;35135;47.510;19.036;2023-08-24T15:22:59;30.00;45.80